Time;durP1;ratioP1;P1;durP2;ratioP2;P2;SDS_P1;SDS_P2;PMS_P1;PMS_P2;Temp;Humidity;BMP_temperature;BMP_pressure;BME280_temperature;BME280_humidity;BME280_pressure;Samples;Min_cycle;Max_cycle;Signal;HPM_P1;HPM_P2
2022/10/25 00:00:50;;;;;;;7.13;1.80;;;14.50;99.90;;;;;;5042789;28;20509;-83
2022/10/25 00:03:17;;;;;;;11.00;3.30;;;14.50;99.90;;;;;;5047301;28;20480;-83
2022/10/25 00:05:43;;;;;;;12.70;2.20;;;14.50;99.90;;;;;;5048323;28;20524;-82
2022/10/25 00:08:10;;;;;;;3.77;1.90;;;14.50;99.90;;;;;;5045574;28;21016;-83
2022/10/25 00:10:38;;;;;;;7.40;2.03;;;14.50;99.90;;;;;;5036883;28;20452;-81
2022/10/25 00:13:06;;;;;;;5.80;2.00;;;14.50;99.90;;;;;;5028916;28;20522;-81
2022/10/25 00:15:33;;;;;;;4.90;1.87;;;14.40;99.90;;;;;;5032985;28;20517;-81
2022/10/25 00:17:59;;;;;;;6.70;2.50;;;14.50;99.90;;;;;;5035439;28;20535;-80
2022/10/25 00:20:26;;;;;;;5.93;2.27;;;14.50;99.90;;;;;;5029345;28;20563;-83
2022/10/25 00:22:53;;;;;;;6.63;1.80;;;14.50;99.90;;;;;;5048133;28;20555;-84
2022/10/25 00:25:20;;;;;;;6.10;2.23;;;14.50;99.90;;;;;;5048175;28;21045;-83
2022/10/25 00:27:47;;;;;;;9.20;1.90;;;14.40;99.90;;;;;;5046928;28;20566;-82
2022/10/25 00:30:15;;;;;;;3.77;1.60;;;14.50;99.90;;;;;;5047031;28;20953;-83
2022/10/25 00:32:42;;;;;;;3.93;1.43;;;14.50;99.90;;;;;;5048295;28;20454;-83
2022/10/25 00:35:10;;;;;;;6.80;1.80;;;14.50;99.90;;;;;;5048420;28;20521;-84
2022/10/25 00:37:36;;;;;;;7.50;2.80;;;14.50;99.90;;;;;;5049823;28;20465;-83
2022/10/25 00:40:04;;;;;;;8.07;2.57;;;14.50;99.90;;;;;;5038788;28;20478;-84
2022/10/25 00:42:31;;;;;;;10.07;2.20;;;14.50;99.90;;;;;;5051782;28;20500;-83
2022/10/25 00:45:01;;;;;;;6.37;1.60;;;14.50;99.90;;;;;;5050876;28;20515;-83
2022/10/25 00:47:51;;;;;;;7.00;1.90;;;14.50;99.90;;;;;;5051278;28;20480;-82
2022/10/25 00:50:25;;;;;;;8.10;1.90;;;14.50;99.90;;;;;;5038968;28;20455;-81
2022/10/25 00:52:55;;;;;;;3.87;1.77;;;14.50;99.90;;;;;;5051538;28;20452;-81
2022/10/25 00:55:25;;;;;;;6.10;1.70;;;14.50;99.90;;;;;;5051221;28;20437;-81
2022/10/25 00:57:56;;;;;;;8.07;1.90;;;14.50;99.90;;;;;;5041510;28;20471;-81
2022/10/25 01:00:23;;;;;;;3.80;1.50;;;14.50;99.90;;;;;;5032675;28;20460;-81
2022/10/25 01:02:52;;;;;;;4.63;1.67;;;14.60;99.90;;;;;;5035482;28;20490;-81
2022/10/25 01:05:19;;;;;;;4.77;1.70;;;14.60;99.90;;;;;;5029787;28;20477;-81
2022/10/25 01:07:46;;;;;;;6.60;2.00;;;14.50;99.90;;;;;;5029217;28;20480;-83
2022/10/25 01:10:13;;;;;;;9.77;1.87;;;14.60;99.90;;;;;;5028619;28;20490;-82
2022/10/25 01:12:40;;;;;;;10.77;1.63;;;14.50;99.90;;;;;;5047345;28;20454;-81
2022/10/25 01:15:08;;;;;;;7.13;1.40;;;14.60;99.90;;;;;;5049130;28;20531;-82
2022/10/25 01:17:44;;;;;;;6.07;1.47;;;14.60;99.90;;;;;;5047566;28;20544;-81
2022/10/25 01:20:38;;;;;;;4.83;1.37;;;14.60;99.90;;;;;;5046877;28;20455;-81
2022/10/25 01:23:25;;;;;;;6.63;1.37;;;14.60;99.90;;;;;;5029754;28;20486;-82
2022/10/25 01:26:21;;;;;;;10.27;2.00;;;14.60;99.90;;;;;;5037308;28;20452;-82
2022/10/25 01:29:03;;;;;;;6.40;1.67;;;14.70;99.90;;;;;;5037924;28;20472;-83
2022/10/25 01:31:38;;;;;;;4.23;1.17;;;14.70;99.90;;;;;;5026259;28;20800;-82
2022/10/25 01:34:10;;;;;;;6.33;1.53;;;14.70;99.90;;;;;;5031554;28;20461;-83
2022/10/25 01:36:45;;;;;;;6.70;1.90;;;14.70;99.90;;;;;;5032688;28;20477;-83
2022/10/25 01:39:15;;;;;;;7.67;1.40;;;14.70;99.90;;;;;;5040160;28;20478;-83
2022/10/25 01:41:52;;;;;;;4.53;1.37;;;14.70;99.90;;;;;;5047795;28;20473;-82
2022/10/25 01:44:30;;;;;;;6.57;1.90;;;14.70;99.90;;;;;;5048015;28;20454;-83
2022/10/25 01:47:03;;;;;;;9.43;1.90;;;14.60;99.90;;;;;;5031021;28;20488;-83
2022/10/25 01:49:36;;;;;;;10.27;1.87;;;14.60;99.90;;;;;;5029082;28;20453;-83
2022/10/25 01:52:03;;;;;;;4.03;1.30;;;14.70;99.90;;;;;;5030095;28;20447;-83
2022/10/25 01:54:30;;;;;;;5.10;1.90;;;14.70;99.90;;;;;;5030383;28;20526;-82
2022/10/25 01:57:09;;;;;;;7.23;1.97;;;14.70;99.90;;;;;;5048834;28;20596;-83
2022/10/25 01:59:59;;;;;;;5.83;1.63;;;14.70;99.90;;;;;;5048171;28;20512;-84
2022/10/25 02:02:33;;;;;;;6.10;1.83;;;14.70;99.90;;;;;;5031894;28;20505;-84
2022/10/25 02:05:09;;;;;;;8.73;1.60;;;14.70;99.90;;;;;;5033936;28;20447;-83
2022/10/25 02:07:38;;;;;;;6.30;1.80;;;14.70;99.90;;;;;;5050346;28;20547;-83
2022/10/25 02:10:09;;;;;;;4.90;1.40;;;14.70;99.90;;;;;;5048228;28;20487;-83
2022/10/25 02:12:46;;;;;;;6.57;1.83;;;14.80;99.90;;;;;;5034134;28;20518;-82
2022/10/25 02:15:17;;;;;;;4.53;1.53;;;14.80;99.90;;;;;;5048575;28;20425;-84
2022/10/25 02:17:51;;;;;;;5.00;1.23;;;14.70;99.90;;;;;;5048362;28;20483;-83
2022/10/25 02:20:20;;;;;;;9.37;1.80;;;14.80;99.90;;;;;;5049248;28;20432;-84
2022/10/25 02:22:49;;;;;;;6.03;1.40;;;14.80;99.90;;;;;;5032046;28;20483;-83
2022/10/25 02:25:17;;;;;;;10.67;1.93;;;14.80;99.90;;;;;;5047985;28;20460;-84
2022/10/25 02:27:45;;;;;;;4.13;1.50;;;14.90;99.90;;;;;;5031825;28;20816;-83
2022/10/25 02:30:12;;;;;;;3.03;1.30;;;14.80;99.90;;;;;;5027512;28;20457;-83
2022/10/25 02:32:39;;;;;;;9.53;1.70;;;14.80;99.90;;;;;;5043710;28;20452;-83
2022/10/25 02:35:13;;;;;;;8.73;2.00;;;14.80;99.90;;;;;;5045336;28;20544;-81
2022/10/25 02:37:40;;;;;;;6.23;1.67;;;14.60;99.90;;;;;;5041860;28;20469;-84
2022/10/25 02:40:08;;;;;;;2.97;1.20;;;14.70;99.90;;;;;;5043396;28;20526;-84
2022/10/25 02:45:57;;;;;;;10.93;1.50;;;14.70;99.90;;;;;;5046319;28;20624;-83
2022/10/25 02:48:24;;;;;;;5.40;1.80;;;14.70;99.90;;;;;;5044651;28;20576;-83
2022/10/25 02:50:52;;;;;;;6.03;1.37;;;14.70;99.90;;;;;;5044009;28;20466;-83
2022/10/25 02:53:19;;;;;;;4.20;1.80;;;14.70;99.90;;;;;;5047617;28;20448;-83
2022/10/25 02:55:46;;;;;;;8.60;1.70;;;14.80;99.90;;;;;;5035327;28;20465;-84
2022/10/25 02:58:13;;;;;;;4.63;1.40;;;14.80;99.90;;;;;;5045153;28;20548;-83
2022/10/25 03:00:39;;;;;;;5.63;1.53;;;14.80;99.90;;;;;;5029951;28;20517;-83
2022/10/25 03:03:06;;;;;;;5.80;1.87;;;14.80;99.90;;;;;;5035257;28;20489;-82
2022/10/25 03:05:33;;;;;;;8.30;1.47;;;14.70;99.90;;;;;;5046558;28;20449;-83
2022/10/25 03:08:01;;;;;;;6.63;1.70;;;14.80;99.90;;;;;;5044463;28;20466;-83
2022/10/25 03:10:28;;;;;;;6.50;1.93;;;14.80;99.90;;;;;;5042785;28;20525;-82
2022/10/25 03:12:54;;;;;;;4.20;1.17;;;14.70;99.90;;;;;;5041609;28;20452;-82
2022/10/25 03:15:21;;;;;;;8.50;1.70;;;14.60;99.90;;;;;;5034838;28;20536;-83
2022/10/25 03:17:48;;;;;;;5.83;1.40;;;14.70;99.90;;;;;;5024392;28;20486;-83
2022/10/25 03:20:15;;;;;;;4.73;1.30;;;14.80;99.90;;;;;;5038517;28;20525;-84
2022/10/25 03:22:42;;;;;;;4.50;1.30;;;14.80;99.90;;;;;;5028713;28;20475;-83
2022/10/25 03:25:10;;;;;;;5.93;1.60;;;14.80;99.90;;;;;;5041485;28;20520;-83
2022/10/25 03:27:37;;;;;;;7.30;1.97;;;14.80;99.90;;;;;;5026533;28;20472;-84
2022/10/25 03:30:04;;;;;;;9.43;1.87;;;14.90;99.90;;;;;;5026395;28;20459;-84
2022/10/25 03:32:31;;;;;;;4.80;1.70;;;14.90;99.90;;;;;;5025363;28;20452;-83
2022/10/25 03:34:58;;;;;;;4.17;1.87;;;14.90;99.90;;;;;;5033363;28;20519;-84
2022/10/25 03:37:24;;;;;;;7.70;2.33;;;14.90;99.90;;;;;;5040437;28;20539;-83
2022/10/25 03:39:52;;;;;;;5.90;1.73;;;14.90;99.90;;;;;;5039306;28;20458;-84
2022/10/25 03:42:21;;;;;;;5.17;1.37;;;14.90;99.90;;;;;;5044188;28;20480;-83
2022/10/25 03:44:48;;;;;;;7.87;2.53;;;14.90;99.90;;;;;;5045333;28;20951;-84
2022/10/25 03:47:16;;;;;;;6.30;1.70;;;14.90;99.90;;;;;;5044619;28;20479;-84
2022/10/25 03:49:42;;;;;;;5.93;1.07;;;14.90;99.90;;;;;;5033785;28;20465;-81
2022/10/25 03:52:10;;;;;;;4.70;1.40;;;14.90;99.90;;;;;;5023061;28;20472;-83
2022/10/25 03:54:37;;;;;;;8.60;1.90;;;14.90;99.90;;;;;;5021804;28;20464;-82
2022/10/25 03:57:04;;;;;;;4.57;1.33;;;14.90;99.90;;;;;;5024447;28;20484;-84
2022/10/25 03:59:32;;;;;;;6.23;1.37;;;14.90;99.90;;;;;;5025696;28;20542;-82
2022/10/25 04:02:00;;;;;;;2.80;1.40;;;14.90;99.90;;;;;;5025594;28;20516;-83
2022/10/25 04:04:27;;;;;;;8.50;1.67;;;14.90;99.90;;;;;;5041537;28;20486;-83
2022/10/25 04:06:54;;;;;;;6.47;1.63;;;14.90;99.90;;;;;;5044773;28;20467;-82
2022/10/25 04:09:21;;;;;;;7.33;1.70;;;14.80;99.90;;;;;;5043613;28;20535;-81
2022/10/25 04:11:49;;;;;;;10.10;2.20;;;14.80;99.90;;;;;;5047438;28;20447;-82
2022/10/25 04:14:16;;;;;;;5.43;1.70;;;14.80;99.90;;;;;;5047954;28;20515;-82
2022/10/25 04:16:44;;;;;;;10.97;2.53;;;14.80;99.90;;;;;;5050266;28;20544;-82
2022/10/25 04:19:11;;;;;;;6.80;1.70;;;14.80;99.90;;;;;;5041781;28;20523;-83
2022/10/25 04:21:38;;;;;;;7.73;1.23;;;14.80;99.90;;;;;;5031348;28;20535;-83
2022/10/25 04:24:05;;;;;;;7.53;2.00;;;14.90;99.90;;;;;;5049838;28;21091;-83
2022/10/25 04:26:33;;;;;;;6.40;2.00;;;14.80;99.90;;;;;;5050754;28;20482;-81
2022/10/25 04:29:00;;;;;;;8.13;1.87;;;14.70;99.90;;;;;;5046406;28;20455;-84
2022/10/25 04:31:27;;;;;;;3.10;1.70;;;14.60;99.90;;;;;;5028547;28;20449;-84
2022/10/25 04:33:56;;;;;;;5.13;1.40;;;14.70;99.90;;;;;;5033342;28;20519;-83
2022/10/25 04:36:23;;;;;;;6.57;1.37;;;14.70;99.90;;;;;;5031167;28;20834;-84
2022/10/25 04:38:51;;;;;;;4.13;1.30;;;14.80;99.90;;;;;;5031159;28;20454;-84
2022/10/25 04:41:19;;;;;;;8.33;2.17;;;14.80;99.90;;;;;;5048189;28;20554;-82
2022/10/25 04:43:46;;;;;;;5.60;1.60;;;14.80;99.90;;;;;;5031742;28;20477;-83
2022/10/25 04:46:14;;;;;;;5.87;1.90;;;14.80;99.90;;;;;;5044787;28;20459;-83
2022/10/25 04:48:41;;;;;;;5.87;1.43;;;14.80;99.90;;;;;;5046467;28;20539;-83
2022/10/25 04:51:11;;;;;;;5.57;2.03;;;14.80;99.90;;;;;;5045386;28;20456;-83
2022/10/25 04:53:38;;;;;;;9.03;2.33;;;14.80;99.90;;;;;;5049655;28;20440;-83
2022/10/25 04:56:06;;;;;;;5.77;1.83;;;14.80;99.90;;;;;;5037098;28;20460;-83
2022/10/25 04:58:34;;;;;;;7.70;2.70;;;14.90;99.90;;;;;;5034118;28;20456;-82
2022/10/25 05:01:02;;;;;;;8.13;2.00;;;14.80;99.90;;;;;;5028846;28;20790;-83
2022/10/25 05:03:29;;;;;;;7.17;2.30;;;14.90;99.90;;;;;;5029028;28;20497;-83
2022/10/25 05:06:04;;;;;;;9.60;2.43;;;14.80;99.90;;;;;;5029609;28;20536;-83
2022/10/25 05:08:32;;;;;;;5.03;1.70;;;14.90;99.90;;;;;;5027960;28;20454;-81
2022/10/25 05:10:59;;;;;;;6.30;1.80;;;14.80;99.90;;;;;;5041278;28;20543;-83
2022/10/25 05:13:26;;;;;;;6.27;2.20;;;14.70;99.90;;;;;;5044697;28;20545;-83
2022/10/25 05:15:55;;;;;;;8.80;2.20;;;14.70;99.90;;;;;;5045603;28;20536;-82
2022/10/25 05:18:22;;;;;;;5.27;1.70;;;14.70;99.90;;;;;;5044434;28;20487;-83
2022/10/25 05:20:52;;;;;;;8.20;1.70;;;14.70;99.90;;;;;;5045282;28;21005;-83
2022/10/25 05:23:19;;;;;;;9.83;2.00;;;14.70;99.90;;;;;;5045122;28;20482;-82
2022/10/25 05:25:48;;;;;;;11.83;2.43;;;14.70;99.90;;;;;;5046601;28;20554;-83
2022/10/25 05:28:15;;;;;;;4.53;2.13;;;14.80;99.90;;;;;;5046037;28;20784;-82
2022/10/25 05:30:42;;;;;;;5.50;1.80;;;14.70;99.90;;;;;;5048104;28;20518;-82
2022/10/25 05:33:10;;;;;;;5.93;2.03;;;14.80;99.90;;;;;;5043170;28;20525;-83
2022/10/25 05:35:36;;;;;;;6.17;1.90;;;14.80;99.90;;;;;;5029270;28;20453;-81
2022/10/25 05:38:03;;;;;;;8.43;1.90;;;14.90;99.90;;;;;;5042633;28;20549;-83
2022/10/25 05:40:30;;;;;;;5.03;2.57;;;14.80;99.90;;;;;;5027920;28;20516;-82
2022/10/25 05:42:59;;;;;;;7.47;2.60;;;14.90;99.90;;;;;;5033188;28;21018;-82
2022/10/25 05:45:27;;;;;;;6.40;1.97;;;14.80;99.90;;;;;;5046746;28;20946;-83
2022/10/25 05:47:54;;;;;;;8.13;2.23;;;14.70;99.90;;;;;;5044106;28;20560;-83
2022/10/25 05:50:21;;;;;;;11.70;2.07;;;14.70;99.90;;;;;;5041852;28;20448;-84
2022/10/25 05:52:47;;;;;;;5.83;2.50;;;14.70;99.90;;;;;;5035260;28;20463;-85
2022/10/25 05:55:14;;;;;;;6.63;1.90;;;14.80;99.90;;;;;;5033835;28;21049;-86
2022/10/25 05:57:50;;;;;;;8.40;2.10;;;14.80;99.90;;;;;;5035143;28;20476;-86
2022/10/25 06:00:19;;;;;;;7.20;2.30;;;14.80;99.90;;;;;;5033660;28;20962;-86
2022/10/25 06:02:45;;;;;;;7.03;2.10;;;14.80;99.90;;;;;;5034202;28;20480;-85
2022/10/25 06:05:12;;;;;;;7.77;2.67;;;14.70;99.90;;;;;;5033178;28;20459;-86
2022/10/25 06:07:40;;;;;;;8.50;2.50;;;14.80;99.90;;;;;;5034244;28;20469;-86
2022/10/25 06:10:07;;;;;;;7.63;3.43;;;14.70;99.90;;;;;;5033777;28;20453;-86
2022/10/25 06:12:34;;;;;;;5.67;2.10;;;14.80;99.90;;;;;;5035580;28;20951;-86
2022/10/25 06:15:01;;;;;;;10.33;2.53;;;14.70;99.90;;;;;;5034599;28;21188;-86
2022/10/25 06:17:29;;;;;;;3.50;2.30;;;14.70;99.90;;;;;;5034645;28;20483;-86
2022/10/25 06:19:55;;;;;;;6.57;2.40;;;14.80;99.90;;;;;;5034402;28;20445;-85
2022/10/25 06:22:22;;;;;;;13.10;3.10;;;14.70;99.90;;;;;;5033916;28;20453;-86
2022/10/25 06:24:49;;;;;;;8.20;2.63;;;14.80;99.90;;;;;;5034141;28;20483;-85
2022/10/25 06:27:16;;;;;;;6.20;2.60;;;14.80;99.90;;;;;;5033742;28;20476;-86
2022/10/25 06:29:43;;;;;;;6.30;2.50;;;14.70;99.90;;;;;;5032794;28;20457;-86
2022/10/25 06:32:09;;;;;;;5.70;2.10;;;14.80;99.90;;;;;;5033426;28;20540;-86
2022/10/25 06:34:37;;;;;;;6.70;2.40;;;14.80;99.90;;;;;;5032071;28;20449;-85
2022/10/25 06:37:04;;;;;;;5.50;2.53;;;14.80;99.90;;;;;;5033855;28;21031;-85
2022/10/25 06:39:31;;;;;;;9.77;2.90;;;14.70;99.90;;;;;;5033454;28;20492;-85
2022/10/25 06:41:58;;;;;;;8.83;2.10;;;14.70;99.90;;;;;;5021549;28;20458;-85
2022/10/25 06:44:24;;;;;;;5.00;2.40;;;14.80;99.90;;;;;;5025213;28;20570;-85
2022/10/25 06:46:52;;;;;;;5.17;2.40;;;14.70;99.90;;;;;;5032287;28;21013;-86
2022/10/25 06:49:19;;;;;;;4.90;2.13;;;14.70;99.90;;;;;;5034603;28;20558;-86
2022/10/25 06:51:47;;;;;;;2.87;2.23;;;14.70;99.90;;;;;;5035312;28;20456;-85
2022/10/25 06:54:13;;;;;;;3.93;1.50;;;14.80;99.90;;;;;;5037408;28;20448;-85
2022/10/25 06:56:40;;;;;;;5.03;2.10;;;14.80;99.90;;;;;;5036585;28;20532;-86
2022/10/25 06:59:07;;;;;;;4.20;1.73;;;14.90;99.90;;;;;;5039100;28;20459;-85
2022/10/25 07:01:34;;;;;;;8.50;3.50;;;14.90;99.90;;;;;;5037676;28;20880;-86
2022/10/25 07:04:02;;;;;;;9.97;3.47;;;14.80;99.90;;;;;;5035300;28;20489;-86
2022/10/25 07:06:34;;;;;;;7.50;2.97;;;14.80;99.90;;;;;;5038310;28;20469;-86
2022/10/25 07:09:02;;;;;;;5.00;2.40;;;14.80;99.90;;;;;;5032428;28;20464;-85
2022/10/25 07:11:31;;;;;;;5.20;2.47;;;14.90;99.90;;;;;;5036325;28;20462;-85
2022/10/25 07:13:59;;;;;;;3.83;2.30;;;14.90;99.90;;;;;;5040433;28;20450;-86
2022/10/25 07:16:27;;;;;;;7.43;2.50;;;14.80;99.90;;;;;;5037194;28;20473;-85
2022/10/25 07:18:58;;;;;;;5.43;2.10;;;14.80;99.90;;;;;;5036837;28;20451;-86
2022/10/25 07:21:25;;;;;;;3.67;1.80;;;14.90;99.90;;;;;;5037895;28;20953;-85
2022/10/25 07:23:52;;;;;;;4.10;2.63;;;14.90;99.90;;;;;;5037607;28;20484;-86
2022/10/25 07:26:22;;;;;;;6.00;2.57;;;14.90;99.90;;;;;;5036319;28;20457;-85
2022/10/25 07:28:51;;;;;;;5.87;2.07;;;14.90;99.90;;;;;;5035980;28;20451;-86
2022/10/25 07:31:19;;;;;;;11.00;2.20;;;14.80;99.90;;;;;;5043642;28;20455;-85
2022/10/25 07:33:46;;;;;;;4.47;2.27;;;14.90;99.90;;;;;;5064793;28;20969;-84
2022/10/25 07:36:13;;;;;;;6.43;2.43;;;14.90;99.90;;;;;;5064146;28;20554;-85
2022/10/25 07:38:40;;;;;;;6.10;1.90;;;15.00;99.90;;;;;;5064056;28;20521;-84
2022/10/25 07:41:07;;;;;;;12.87;3.00;;;15.00;99.90;;;;;;5052934;28;20485;-84
2022/10/25 07:43:35;;;;;;;6.10;3.07;;;14.90;99.90;;;;;;5044486;28;20454;-84
2022/10/25 07:46:03;;;;;;;5.77;2.40;;;14.90;99.90;;;;;;5047559;28;20511;-84
2022/10/25 07:48:30;;;;;;;8.37;2.10;;;14.90;99.90;;;;;;5050101;28;20469;-84
2022/10/25 07:50:56;;;;;;;6.30;2.33;;;14.90;99.90;;;;;;5047184;28;20539;-85
2022/10/25 07:53:23;;;;;;;7.37;2.67;;;15.00;99.90;;;;;;5040425;28;20446;-85
2022/10/25 07:55:51;;;;;;;3.53;1.90;;;15.00;99.90;;;;;;5039808;28;20955;-85
2022/10/25 07:58:18;;;;;;;5.20;2.47;;;15.10;99.90;;;;;;5041802;28;20501;-85
2022/10/25 08:00:46;;;;;;;4.67;1.83;;;15.10;99.90;;;;;;5043320;28;20456;-85
2022/10/25 08:03:14;;;;;;;6.40;2.50;;;15.10;99.90;;;;;;5042327;28;20466;-85
2022/10/25 08:05:43;;;;;;;7.70;2.93;;;15.20;99.90;;;;;;5042160;28;21183;-86
2022/10/25 08:08:10;;;;;;;4.57;2.33;;;15.20;99.90;;;;;;5042096;28;20479;-86
2022/10/25 08:10:37;;;;;;;5.00;2.37;;;15.10;99.90;;;;;;5042387;28;21218;-85
2022/10/25 08:13:04;;;;;;;5.57;2.80;;;15.10;99.90;;;;;;5041351;28;20464;-85
2022/10/25 08:15:31;;;;;;;3.73;2.20;;;15.20;99.90;;;;;;5039727;28;20447;-85
2022/10/25 08:18:00;;;;;;;8.60;2.50;;;15.20;99.90;;;;;;5041146;28;20493;-85
2022/10/25 08:20:27;;;;;;;7.80;2.43;;;15.20;99.90;;;;;;5041768;28;20460;-86
2022/10/25 08:22:57;;;;;;;6.70;2.33;;;15.20;99.90;;;;;;5041519;28;20460;-85
2022/10/25 08:25:24;;;;;;;6.83;2.40;;;15.30;99.90;;;;;;5042055;28;20496;-86
2022/10/25 08:27:51;;;;;;;5.63;2.40;;;15.20;99.90;;;;;;5042130;28;20494;-85
2022/10/25 08:30:18;;;;;;;5.83;2.10;;;15.30;99.90;;;;;;5038964;28;20467;-85
2022/10/25 08:32:45;;;;;;;4.30;1.90;;;15.40;99.90;;;;;;5043856;28;20453;-86
2022/10/25 08:35:14;;;;;;;7.93;2.93;;;15.40;99.90;;;;;;5041999;28;20453;-85
2022/10/25 08:37:41;;;;;;;6.17;2.47;;;15.50;99.90;;;;;;5042625;28;20472;-85
2022/10/25 08:40:14;;;;;;;5.10;1.67;;;15.60;99.90;;;;;;5040319;28;20461;-86
2022/10/25 08:42:56;;;;;;;6.30;2.30;;;15.70;99.90;;;;;;5042005;28;20445;-86
2022/10/25 08:45:28;;;;;;;5.03;2.17;;;15.70;99.90;;;;;;5041108;28;20493;-86
2022/10/25 08:47:58;;;;;;;9.17;2.40;;;15.80;99.90;;;;;;5039896;28;20474;-86
2022/10/25 08:50:35;;;;;;;5.40;2.50;;;15.80;99.90;;;;;;5040591;28;20484;-85
2022/10/25 08:53:06;;;;;;;6.33;2.60;;;15.80;99.90;;;;;;5039001;28;20429;-87
2022/10/25 08:55:36;;;;;;;8.37;2.10;;;15.80;99.90;;;;;;5040014;28;20454;-85
2022/10/25 08:58:08;;;;;;;4.27;1.90;;;15.80;99.90;;;;;;5037571;28;20526;-86
2022/10/25 09:00:39;;;;;;;3.40;1.67;;;15.90;99.90;;;;;;5039424;28;20550;-85
2022/10/25 09:03:13;;;;;;;4.27;2.40;;;15.80;99.90;;;;;;5040440;28;20977;-85
2022/10/25 09:05:47;;;;;;;5.20;1.83;;;15.80;99.90;;;;;;5040548;28;20490;-85
2022/10/25 09:08:32;;;;;;;3.80;2.07;;;15.80;99.90;;;;;;5040790;28;20480;-86
2022/10/25 09:11:06;;;;;;;5.57;2.40;;;15.80;99.90;;;;;;5040536;28;20447;-86
2022/10/25 09:13:41;;;;;;;7.70;2.27;;;15.90;99.90;;;;;;5041096;28;20445;-86
2022/10/25 09:16:15;;;;;;;6.50;2.13;;;15.80;99.90;;;;;;5037885;28;20445;-85
2022/10/25 09:18:47;;;;;;;5.40;1.73;;;15.90;99.90;;;;;;5038024;28;20444;-84
2022/10/25 09:21:19;;;;;;;7.50;2.57;;;16.00;99.90;;;;;;5038968;28;20451;-85
2022/10/25 09:23:56;;;;;;;11.30;2.20;;;16.20;99.90;;;;;;5039237;28;20812;-85
2022/10/25 09:26:42;;;;;;;12.60;2.90;;;16.20;99.90;;;;;;5039339;28;20845;-86
2022/10/25 09:29:16;;;;;;;9.47;1.90;;;16.20;99.90;;;;;;5037839;28;20859;-86
2022/10/25 09:31:47;;;;;;;8.63;2.47;;;16.20;99.90;;;;;;5040239;28;20452;-85
2022/10/25 09:34:18;;;;;;;8.03;2.23;;;16.20;99.90;;;;;;5041951;28;20451;-85
2022/10/25 09:36:48;;;;;;;5.83;1.67;;;16.40;99.90;;;;;;5040727;28;20481;-86
2022/10/25 09:39:21;;;;;;;8.10;1.70;;;16.50;99.90;;;;;;5040388;28;20453;-85
2022/10/25 09:41:52;;;;;;;5.30;1.77;;;16.60;99.90;;;;;;5042723;28;20445;-85
2022/10/25 09:44:31;;;;;;;4.53;1.50;;;16.70;99.90;;;;;;5043726;28;20484;-84
2022/10/25 09:47:04;;;;;;;4.50;2.10;;;16.70;99.90;;;;;;5043414;28;20473;-85
2022/10/25 09:49:37;;;;;;;8.30;2.17;;;16.60;99.90;;;;;;5042588;28;20447;-83
2022/10/25 09:52:11;;;;;;;4.97;1.50;;;16.70;99.90;;;;;;5040266;28;20459;-86
2022/10/25 09:54:45;;;;;;;4.27;2.00;;;16.60;99.90;;;;;;5040040;28;20451;-84
2022/10/25 09:57:11;;;;;;;4.73;1.57;;;16.70;99.90;;;;;;5041436;28;20481;-85
2022/10/25 09:59:38;;;;;;;9.30;2.00;;;16.70;99.90;;;;;;5041189;28;20520;-85
2022/10/25 10:02:05;;;;;;;8.20;1.80;;;16.60;99.90;;;;;;5041679;28;20474;-85
2022/10/25 10:04:36;;;;;;;7.20;1.63;;;16.50;99.90;;;;;;5041190;28;20499;-85
2022/10/25 10:07:11;;;;;;;5.73;2.00;;;16.50;99.90;;;;;;5040636;28;20475;-86
2022/10/25 10:09:41;;;;;;;3.13;1.57;;;16.50;99.90;;;;;;5038847;28;20444;-86
2022/10/25 10:12:18;;;;;;;7.23;1.60;;;16.50;99.90;;;;;;5038765;28;20468;-85
2022/10/25 10:14:51;;;;;;;2.80;1.50;;;16.40;99.90;;;;;;5042346;28;20986;-86
2022/10/25 10:17:19;;;;;;;4.50;1.57;;;16.40;99.90;;;;;;5041229;28;21017;-84
2022/10/25 10:20:09;;;;;;;5.10;1.53;;;16.30;99.90;;;;;;5035841;28;20448;-86
2022/10/25 10:22:38;;;;;;;13.33;3.30;;;16.40;99.90;;;;;;5039027;28;20458;-85
2022/10/25 10:25:05;;;;;;;5.90;1.50;;;16.20;99.90;;;;;;5039671;28;20490;-85
2022/10/25 10:27:33;;;;;;;6.53;1.70;;;16.30;99.90;;;;;;5039594;28;20508;-86
2022/10/25 10:30:05;;;;;;;5.20;1.70;;;16.30;99.90;;;;;;5038808;28;20537;-86
2022/10/25 10:32:35;;;;;;;5.23;1.53;;;16.40;99.90;;;;;;5039083;28;20483;-85
2022/10/25 10:35:05;;;;;;;5.50;1.60;;;16.50;99.90;;;;;;5038036;28;20453;-85
2022/10/25 10:37:34;;;;;;;5.17;1.50;;;16.60;99.90;;;;;;5040942;28;20473;-84
2022/10/25 10:40:02;;;;;;;6.53;1.80;;;16.50;99.90;;;;;;5038637;28;20456;-85
2022/10/25 10:42:34;;;;;;;6.63;2.40;;;16.40;99.90;;;;;;5041506;28;20531;-85
2022/10/25 10:45:12;;;;;;;7.13;1.33;;;16.50;99.90;;;;;;5040168;28;20484;-85
2022/10/25 10:47:44;;;;;;;5.97;1.67;;;16.60;99.90;;;;;;5040844;28;20476;-85
2022/10/25 10:50:13;;;;;;;8.37;2.03;;;16.70;99.90;;;;;;5041947;28;20483;-85
2022/10/25 10:52:44;;;;;;;5.00;2.30;;;16.60;99.90;;;;;;5042065;28;20528;-85
2022/10/25 10:55:18;;;;;;;4.27;1.50;;;16.70;99.90;;;;;;5041009;28;20445;-86
2022/10/25 10:57:45;;;;;;;4.43;1.30;;;16.40;99.90;;;;;;5039273;28;20477;-84
2022/10/25 11:00:21;;;;;;;5.43;1.60;;;16.50;99.90;;;;;;5040161;28;20466;-85
2022/10/25 11:02:48;;;;;;;4.03;1.70;;;16.50;99.90;;;;;;5041726;28;20453;-85
2022/10/25 11:05:25;;;;;;;10.67;2.00;;;16.60;99.90;;;;;;5040080;28;20499;-85
2022/10/25 11:07:56;;;;;;;3.30;1.53;;;16.80;99.90;;;;;;5040064;28;20472;-85
2022/10/25 11:10:28;;;;;;;3.93;1.60;;;17.20;99.90;;;;;;5042102;28;20453;-86
2022/10/25 11:13:13;;;;;;;6.30;1.47;;;17.30;99.90;;;;;;5041443;28;20455;-84
2022/10/25 11:16:07;;;;;;;6.10;1.60;;;17.40;99.90;;;;;;5042358;28;20424;-85
2022/10/25 11:18:45;;;;;;;4.37;1.30;;;17.50;99.90;;;;;;5042071;28;20528;-86
2022/10/25 11:21:24;;;;;;;4.70;1.70;;;17.40;99.90;;;;;;5041494;28;20515;-85
2022/10/25 11:24:04;;;;;;;5.30;1.60;;;17.40;99.90;;;;;;5036326;28;20659;-85
2022/10/25 11:26:45;;;;;;;6.40;1.40;;;17.30;99.90;;;;;;5038334;28;20520;-85
2022/10/25 11:29:19;;;;;;;6.17;1.60;;;17.40;99.90;;;;;;5039299;28;20446;-84
2022/10/25 11:32:00;;;;;;;6.27;1.73;;;17.50;99.90;;;;;;5040780;28;20452;-85
2022/10/25 11:34:36;;;;;;;4.60;1.10;;;17.60;99.90;;;;;;5038821;28;20452;-85
2022/10/25 11:37:12;;;;;;;4.93;1.10;;;17.60;99.90;;;;;;5040176;28;21005;-85
2022/10/25 11:39:50;;;;;;;3.73;1.30;;;17.50;99.90;;;;;;5038760;28;20442;-84
2022/10/25 11:42:32;;;;;;;2.50;1.30;;;17.80;99.90;;;;;;5041241;28;20464;-85
2022/10/25 11:45:36;;;;;;;5.50;2.60;;;17.80;99.90;;;;;;5047803;28;20496;-88
2022/10/25 11:48:23;;;;;;;5.13;1.60;;;17.90;99.90;;;;;;5015362;28;20470;-87
2022/10/25 11:50:58;;;;;;;3.50;1.40;;;18.40;99.90;;;;;;5055197;28;20530;-86
2022/10/25 11:53:44;;;;;;;6.27;1.50;;;18.70;99.90;;;;;;5040824;28;20528;-85
2022/10/25 11:56:21;;;;;;;4.00;1.63;;;18.50;99.90;;;;;;5040559;28;20931;-85
2022/10/25 11:58:56;;;;;;;8.37;2.27;;;18.50;99.90;;;;;;5041183;28;20438;-85
2022/10/25 12:01:34;;;;;;;3.50;1.50;;;19.30;99.90;;;;;;5040975;28;20446;-86
2022/10/25 12:04:26;;;;;;;7.30;1.40;;;20.20;99.90;;;;;;5039178;28;20516;-86
2022/10/25 12:07:02;;;;;;;3.93;1.80;;;21.10;99.90;;;;;;5038197;28;20488;-84
2022/10/25 12:09:41;;;;;;;3.40;1.23;;;21.90;99.90;;;;;;5036317;28;20432;-85
2022/10/25 12:12:12;;;;;;;4.43;1.53;;;22.10;99.90;;;;;;5037520;28;20453;-86
2022/10/25 12:14:43;;;;;;;2.80;1.20;;;21.50;99.90;;;;;;5037729;28;20437;-85
2022/10/25 12:17:19;;;;;;;3.60;1.47;;;21.10;99.90;;;;;;5037540;28;20485;-86
2022/10/25 12:19:49;;;;;;;5.90;1.30;;;20.70;99.90;;;;;;5038473;28;20448;-86
2022/10/25 12:22:21;;;;;;;6.30;1.40;;;20.30;99.90;;;;;;5040129;28;20455;-84
2022/10/25 12:24:52;;;;;;;2.90;1.10;;;20.20;99.90;;;;;;5040753;28;20448;-85
2022/10/25 12:27:22;;;;;;;3.80;1.30;;;19.70;99.90;;;;;;5039562;28;20473;-85
2022/10/25 12:29:53;;;;;;;4.57;1.27;;;19.50;99.90;;;;;;5041692;28;20478;-84
2022/10/25 12:32:23;;;;;;;3.40;1.30;;;19.60;99.90;;;;;;5041881;28;20440;-85
2022/10/25 12:34:53;;;;;;;3.40;1.20;;;20.00;99.90;;;;;;5042359;28;21124;-85
2022/10/25 12:37:26;;;;;;;3.93;1.10;;;20.40;99.90;;;;;;5039590;28;21152;-85
2022/10/25 12:39:53;;;;;;;4.10;1.20;;;20.40;99.90;;;;;;5040923;28;20457;-85
2022/10/25 12:42:25;;;;;;;7.70;1.40;;;20.20;99.90;;;;;;5041235;28;20457;-85
2022/10/25 12:45:18;;;;;;;3.10;1.40;;;20.10;99.90;;;;;;5042234;28;20448;-86
2022/10/25 12:47:58;;;;;;;2.73;1.10;;;19.80;99.90;;;;;;5041836;28;20479;-86
2022/10/25 12:50:38;;;;;;;2.67;1.00;;;19.70;99.90;;;;;;5041803;28;20525;-85
2022/10/25 12:53:38;;;;;;;6.77;1.77;;;19.30;99.90;;;;;;5045537;28;20457;-86
2022/10/25 12:56:17;;;;;;;4.30;1.40;;;18.80;99.90;;;;;;5043521;28;20466;-85
2022/10/25 12:58:57;;;;;;;4.67;1.00;;;18.60;99.90;;;;;;5025109;28;20440;-85
2022/10/25 13:01:40;;;;;;;4.40;1.20;;;18.50;99.90;;;;;;5024795;28;20505;-85
2022/10/25 13:04:34;;;;;;;2.13;1.00;;;18.30;99.90;;;;;;5033689;28;21010;-85
2022/10/25 13:07:04;;;;;;;2.73;1.00;;;18.30;99.90;;;;;;5044458;28;21025;-84